Time;durP1;ratioP1;P1;durP2;ratioP2;P2;SDS_P1;SDS_P2;PMS_P1;PMS_P2;Temp;Humidity;BMP_temperature;BMP_pressure;BME280_temperature;BME280_humidity;BME280_pressure;Samples;Min_cycle;Max_cycle;Signal;HPM_P1;HPM_P2
2023/01/26 00:01:22;;;;;;;6.82;4.70;;;3.40;99.90;;;;;;5064955;28;20212;-47
2023/01/26 00:04:07;;;;;;;6.85;5.38;;;3.40;99.90;;;;;;5057316;28;20633;-46
2023/01/26 00:06:51;;;;;;;6.72;4.95;;;3.40;99.90;;;;;;5069526;28;20219;-46
2023/01/26 00:09:41;;;;;;;6.57;4.72;;;3.40;99.90;;;;;;5067595;28;20320;-46
2023/01/26 00:12:39;;;;;;;8.85;5.15;;;3.40;99.90;;;;;;5077121;28;20674;-47
2023/01/26 00:15:28;;;;;;;6.72;4.70;;;3.40;99.90;;;;;;5055924;28;20216;-46
2023/01/26 00:18:07;;;;;;;6.93;5.22;;;3.40;99.90;;;;;;5069856;28;20191;-46
2023/01/26 00:20:47;;;;;;;6.32;5.10;;;3.40;99.90;;;;;;5057657;28;20238;-46
2023/01/26 00:23:22;;;;;;;7.03;5.18;;;3.40;99.90;;;;;;5072777;28;20219;-46
2023/01/26 00:25:59;;;;;;;8.85;5.88;;;3.40;99.90;;;;;;5080926;28;20247;-46
2023/01/26 00:31:50;;;;;;;5.57;4.50;;;3.40;99.90;;;;;;5075354;28;20305;-47
2023/01/26 00:34:38;;;;;;;7.15;4.80;;;3.40;99.90;;;;;;5092394;28;20230;-46
2023/01/26 00:37:18;;;;;;;9.05;4.90;;;3.40;99.90;;;;;;5067470;28;20196;-45
2023/01/26 00:39:57;;;;;;;7.68;5.43;;;3.40;99.90;;;;;;5061903;28;20261;-46
2023/01/26 00:42:47;;;;;;;6.95;5.25;;;3.40;99.90;;;;;;5060773;28;20198;-47
2023/01/26 00:45:51;;;;;;;6.85;5.45;;;3.40;99.90;;;;;;5055242;28;20774;-47
2023/01/26 00:49:00;;;;;;;9.02;5.50;;;3.40;99.90;;;;;;5072025;28;20211;-46
2023/01/26 00:52:02;;;;;;;6.47;4.82;;;3.40;99.90;;;;;;5077716;28;20221;-49
2023/01/26 00:54:42;;;;;;;8.20;4.80;;;3.40;99.90;;;;;;5099668;27;20223;-45
2023/01/26 00:57:35;;;;;;;9.40;5.75;;;3.40;99.90;;;;;;5069787;28;20192;-45
2023/01/26 01:00:27;;;;;;;6.35;4.60;;;3.40;99.90;;;;;;5066140;28;20242;-47
2023/01/26 01:03:25;;;;;;;9.05;5.35;;;3.40;99.90;;;;;;5072823;28;20192;-45
2023/01/26 01:06:03;;;;;;;7.63;4.47;;;3.30;99.90;;;;;;5067317;28;20238;-45
2023/01/26 01:08:43;;;;;;;5.63;4.45;;;3.40;99.90;;;;;;5077675;28;20237;-47
2023/01/26 01:11:37;;;;;;;6.95;4.75;;;3.40;99.90;;;;;;5097402;28;20218;-47
2023/01/26 01:14:35;;;;;;;7.93;4.95;;;3.30;99.90;;;;;;5071540;28;20225;-47
2023/01/26 01:17:24;;;;;;;5.80;4.72;;;3.30;99.90;;;;;;5064861;28;20184;-47
2023/01/26 01:20:27;;;;;;;7.20;4.82;;;3.30;99.90;;;;;;5070108;28;20718;-46
2023/01/26 01:23:21;;;;;;;6.65;4.63;;;3.40;99.90;;;;;;5086868;28;20199;-46
2023/01/26 01:26:05;;;;;;;6.00;4.47;;;3.40;99.90;;;;;;5066443;28;20188;-45
2023/01/26 01:29:08;;;;;;;6.75;5.22;;;3.40;99.90;;;;;;5066317;28;20220;-45
2023/01/26 01:31:49;;;;;;;7.80;5.00;;;3.40;99.90;;;;;;5095223;28;20230;-46
2023/01/26 01:37:33;;;;;;;5.72;4.45;;;3.40;99.90;;;;;;5063943;28;20195;-45
2023/01/26 01:40:37;;;;;;;7.35;4.90;;;3.40;99.90;;;;;;5059168;28;20313;-46
2023/01/26 01:43:14;;;;;;;8.07;5.28;;;3.40;99.90;;;;;;5069611;28;20258;-47
2023/01/26 01:46:11;;;;;;;8.88;5.97;;;3.40;99.90;;;;;;5070484;28;20206;-48
2023/01/26 01:49:09;;;;;;;7.25;5.82;;;3.30;99.90;;;;;;5067744;28;20279;-46
2023/01/26 01:51:52;;;;;;;6.47;5.22;;;3.30;99.90;;;;;;5065867;28;20211;-48
2023/01/26 01:54:38;;;;;;;13.20;5.75;;;3.30;99.90;;;;;;5062190;28;20211;-46
2023/01/26 01:57:27;;;;;;;6.32;5.28;;;3.30;99.90;;;;;;5069650;28;20698;-47
2023/01/26 02:00:17;;;;;;;6.18;4.50;;;3.30;99.90;;;;;;5070243;28;20236;-47
2023/01/26 02:03:20;;;;;;;10.07;6.78;;;3.30;99.90;;;;;;5084757;28;20230;-47
2023/01/26 02:06:06;;;;;;;6.88;4.90;;;3.30;99.90;;;;;;5096781;28;20574;-46
2023/01/26 02:09:01;;;;;;;9.13;5.53;;;3.30;99.90;;;;;;5054903;28;20590;-46
2023/01/26 02:11:52;;;;;;;6.95;4.90;;;3.30;99.90;;;;;;5081359;28;20245;-46
2023/01/26 02:14:39;;;;;;;6.80;5.60;;;3.30;99.90;;;;;;5057386;28;20221;-46
2023/01/26 02:17:21;;;;;;;7.70;5.05;;;3.30;99.90;;;;;;5071653;28;20581;-47
2023/01/26 02:20:37;;;;;;;9.73;5.45;;;3.30;99.90;;;;;;5078302;28;20247;-47
2023/01/26 02:23:41;;;;;;;8.45;6.20;;;3.30;99.90;;;;;;5067096;28;20197;-47
2023/01/26 02:26:26;;;;;;;7.03;4.95;;;3.30;99.90;;;;;;5065840;28;20282;-47
2023/01/26 02:29:11;;;;;;;9.85;5.70;;;3.30;99.90;;;;;;5058505;28;20503;-48
2023/01/26 02:31:53;;;;;;;8.73;5.28;;;3.30;99.90;;;;;;5066992;28;20223;-46
2023/01/26 02:34:39;;;;;;;8.43;5.25;;;3.30;99.90;;;;;;5062219;28;20294;-46
2023/01/26 02:37:33;;;;;;;8.50;5.57;;;3.30;99.90;;;;;;5074642;28;20217;-48
2023/01/26 02:40:34;;;;;;;7.78;4.82;;;3.30;99.90;;;;;;5059840;28;20799;-47
2023/01/26 02:43:28;;;;;;;7.85;5.20;;;3.30;99.90;;;;;;5067918;28;20672;-46
2023/01/26 02:46:15;;;;;;;8.90;5.10;;;3.30;99.90;;;;;;5068894;28;20214;-46
2023/01/26 02:52:19;;;;;;;9.85;5.18;;;3.30;99.90;;;;;;5065423;28;20203;-46
2023/01/26 02:55:27;;;;;;;12.07;6.75;;;3.30;99.90;;;;;;5066260;28;20214;-46
2023/01/26 02:58:27;;;;;;;9.45;5.55;;;3.30;99.90;;;;;;5069667;28;20206;-45
2023/01/26 03:01:31;;;;;;;7.65;5.15;;;3.30;99.90;;;;;;5083227;28;20215;-46
2023/01/26 03:07:16;;;;;;;7.85;4.70;;;3.30;99.90;;;;;;5064880;28;20192;-46
2023/01/26 03:10:18;;;;;;;7.72;5.07;;;3.30;99.90;;;;;;5067980;28;20226;-46
2023/01/26 03:13:11;;;;;;;8.77;5.95;;;3.30;99.90;;;;;;5066477;28;20195;-47
2023/01/26 03:16:01;;;;;;;7.85;4.93;;;3.30;99.90;;;;;;5066182;28;20194;-46
2023/01/26 03:28:26;;;;;;;8.90;5.03;;;3.30;99.90;;;;;;5065490;28;20219;-47
2023/01/26 03:31:20;;;;;;;7.50;5.00;;;3.30;99.90;;;;;;5057371;28;20223;-48
2023/01/26 03:34:08;;;;;;;6.68;4.70;;;3.30;99.90;;;;;;5064089;28;20223;-48
2023/01/26 03:58:17;;;;;;;7.00;4.82;;;3.30;99.90;;;;;;5067462;28;20196;-47
2023/01/26 04:01:18;;;;;;;7.20;4.55;;;3.30;99.90;;;;;;5064148;28;20219;-48
2023/01/26 04:10:37;;;;;;;6.13;4.50;;;3.30;99.90;;;;;;5066664;28;20763;-46
2023/01/26 04:22:42;;;;;;;5.72;4.18;;;3.30;99.90;;;;;;5067310;28;20272;-47
2023/01/26 04:25:35;;;;;;;7.50;5.30;;;3.30;99.90;;;;;;5062345;28;20230;-47
2023/01/26 04:28:32;;;;;;;7.45;4.82;;;3.30;99.90;;;;;;5099641;28;20207;-48
2023/01/26 04:31:17;;;;;;;7.63;4.45;;;3.20;99.90;;;;;;5071194;28;20215;-45
2023/01/26 04:34:02;;;;;;;6.80;3.92;;;3.30;99.90;;;;;;5068419;28;20299;-47
2023/01/26 04:36:54;;;;;;;6.15;4.15;;;3.30;99.90;;;;;;5069517;28;20210;-46
2023/01/26 04:39:55;;;;;;;7.47;4.50;;;3.30;99.90;;;;;;5070678;28;20242;-45
2023/01/26 04:42:42;;;;;;;9.40;5.63;;;3.20;99.90;;;;;;5065083;28;20196;-46
2023/01/26 04:45:37;;;;;;;8.40;4.78;;;3.30;99.90;;;;;;5061268;28;20215;-46
2023/01/26 04:48:30;;;;;;;9.85;5.38;;;3.30;99.90;;;;;;5056251;28;20244;-45
2023/01/26 04:51:18;;;;;;;7.10;4.35;;;3.30;99.90;;;;;;5074801;28;20226;-47
2023/01/26 04:54:19;;;;;;;6.43;4.30;;;3.30;99.90;;;;;;5068434;28;20248;-47
2023/01/26 04:57:01;;;;;;;8.82;4.30;;;3.30;99.90;;;;;;5088444;28;20188;-47
2023/01/26 04:59:50;;;;;;;5.95;4.10;;;3.20;99.90;;;;;;5067427;28;20219;-48
2023/01/26 05:02:48;;;;;;;6.68;4.53;;;3.20;99.90;;;;;;5095970;28;20198;-46
2023/01/26 05:05:44;;;;;;;6.63;3.97;;;3.30;99.90;;;;;;5066459;28;20219;-46
2023/01/26 05:11:52;;;;;;;6.38;4.10;;;3.30;99.90;;;;;;5066130;28;20216;-46
2023/01/26 05:14:54;;;;;;;10.13;3.97;;;3.20;99.90;;;;;;5083473;28;20292;-46
2023/01/26 05:18:06;;;;;;;5.20;4.63;;;3.20;99.90;;;;;;5054217;28;20228;-46
2023/01/26 05:20:58;;;;;;;6.88;4.03;;;3.20;99.90;;;;;;5065983;28;20224;-47
2023/01/26 05:23:39;;;;;;;6.15;4.35;;;3.20;99.90;;;;;;5065484;28;20758;-47
2023/01/26 05:26:42;;;;;;;7.35;4.65;;;3.20;99.90;;;;;;5077384;28;20222;-46
2023/01/26 05:29:46;;;;;;;5.35;4.43;;;3.20;99.90;;;;;;5064667;28;20218;-46
2023/01/26 05:32:38;;;;;;;5.72;4.28;;;3.20;99.90;;;;;;5048831;28;20835;-46
2023/01/26 05:35:24;;;;;;;6.80;4.00;;;3.20;99.90;;;;;;5099278;28;20217;-45
2023/01/26 05:38:29;;;;;;;9.98;4.88;;;3.30;99.90;;;;;;5066021;28;20724;-48
2023/01/26 05:41:20;;;;;;;6.93;4.60;;;3.30;99.90;;;;;;5068057;28;20207;-46
2023/01/26 05:44:18;;;;;;;9.00;4.97;;;3.20;99.90;;;;;;5076631;28;20238;-47
2023/01/26 05:47:13;;;;;;;9.13;5.40;;;3.20;99.90;;;;;;5076317;28;20199;-45
2023/01/26 05:50:15;;;;;;;6.28;4.22;;;3.20;99.90;;;;;;5060012;28;20376;-46
2023/01/26 05:53:18;;;;;;;;;;;;;;;;;;;;;
2023/01/26 05:56:07;;;;;;;5.32;3.70;;;3.20;99.90;;;;;;5076020;28;20198;-46
2023/01/26 06:02:07;;;;;;;7.88;5.32;;;3.20;99.90;;;;;;5060725;28;20596;-46
2023/01/26 06:04:57;;;;;;;5.75;3.75;;;3.20;99.90;;;;;;5082526;28;20220;-47
2023/01/26 06:08:18;;;;;;;6.03;3.63;;;3.20;99.90;;;;;;5087579;28;20203;-46
2023/01/26 06:11:31;;;;;;;6.82;4.20;;;3.20;99.90;;;;;;5077959;28;20351;-46
2023/01/26 06:14:28;;;;;;;6.72;3.90;;;3.20;99.90;;;;;;5077117;28;20590;-47
2023/01/26 06:20:44;;;;;;;8.10;5.00;;;3.20;99.90;;;;;;5073619;28;20211;-48
2023/01/26 06:23:38;;;;;;;5.35;3.45;;;3.20;99.90;;;;;;5070508;28;20215;-47
2023/01/26 06:26:34;;;;;;;7.35;4.38;;;3.20;99.90;;;;;;5082778;28;20194;-46
2023/01/26 06:29:32;;;;;;;5.90;3.85;;;3.20;99.90;;;;;;5066173;28;20219;-46
2023/01/26 06:32:37;;;;;;;6.50;4.28;;;3.20;99.90;;;;;;5061188;28;20201;-46
2023/01/26 06:35:28;;;;;;;6.70;4.43;;;3.20;99.90;;;;;;5102889;28;20253;-47
2023/01/26 06:38:25;;;;;;;7.70;4.50;;;3.20;99.90;;;;;;5068225;28;20200;-47
2023/01/26 06:41:12;;;;;;;5.57;3.80;;;3.20;99.90;;;;;;5064397;28;20791;-47
2023/01/26 06:47:12;;;;;;;6.38;4.65;;;3.20;99.90;;;;;;5054603;28;20196;-46
2023/01/26 06:50:19;;;;;;;6.93;3.85;;;3.20;99.90;;;;;;5065821;28;20671;-46
2023/01/26 06:53:26;;;;;;;10.85;5.00;;;3.20;99.90;;;;;;5064674;28;20222;-46
2023/01/26 06:56:44;;;;;;;9.57;3.95;;;3.20;99.90;;;;;;4992845;28;20590;-49
2023/01/26 06:59:59;;;;;;;7.70;4.30;;;3.20;99.90;;;;;;5059174;28;20222;-46
2023/01/26 07:03:06;;;;;;;5.97;4.05;;;3.20;99.90;;;;;;5086134;28;20754;-47
2023/01/26 07:06:15;;;;;;;7.68;3.92;;;3.20;99.90;;;;;;5070310;28;20791;-46
2023/01/26 07:09:40;;;;;;;10.77;5.05;;;3.20;99.90;;;;;;5017484;28;20275;-46
2023/01/26 07:13:03;;;;;;;7.75;5.35;;;3.20;99.90;;;;;;5051268;28;20217;-47
2023/01/26 07:16:17;;;;;;;7.22;3.85;;;3.20;99.90;;;;;;5073849;28;20215;-45
2023/01/26 07:19:32;;;;;;;6.07;4.38;;;3.20;99.90;;;;;;5067424;28;20683;-46
2023/01/26 07:23:12;;;;;;;4.57;3.25;;;3.20;99.90;;;;;;5067308;28;20284;-46
2023/01/26 07:26:18;;;;;;;8.25;4.30;;;3.20;99.90;;;;;;5056824;28;20463;-47
2023/01/26 07:30:13;;;;;;;7.43;4.35;;;3.20;99.90;;;;;;5049029;28;20700;-47
2023/01/26 07:34:13;;;;;;;9.70;4.93;;;3.20;99.90;;;;;;5073781;28;20554;-44
2023/01/26 07:37:15;;;;;;;7.10;3.40;;;3.20;99.90;;;;;;5065103;28;20765;-46
2023/01/26 07:40:28;;;;;;;;;;;;;;;;;;;;;
2023/01/26 07:43:35;;;;;;;7.15;4.72;;;3.20;99.90;;;;;;5061595;28;20674;-46
2023/01/26 07:49:47;;;;;;;6.38;4.10;;;3.20;99.90;;;;;;4995511;28;20229;-45
2023/01/26 07:52:29;;;;;;;6.65;4.45;;;3.20;99.90;;;;;;4980265;28;20702;-46
2023/01/26 07:55:31;;;;;;;9.18;4.63;;;3.20;99.90;;;;;;4987799;28;20751;-45
2023/01/26 08:02:35;;;;;;;7.80;4.03;;;3.20;99.90;;;;;;4978234;28;20611;-46
2023/01/26 08:05:42;;;;;;;10.25;4.63;;;3.20;99.90;;;;;;4978042;28;20216;-47
2023/01/26 08:08:52;;;;;;;7.38;4.40;;;3.20;99.90;;;;;;4993450;28;20972;-46
2023/01/26 08:16:46;;;;;;;7.65;4.40;;;3.20;99.90;;;;;;4976753;28;20228;-45
2023/01/26 08:23:26;;;;;;;8.38;4.88;;;3.20;99.90;;;;;;4990019;28;20202;-47
2023/01/26 08:30:21;;;;;;;9.82;4.10;;;3.20;99.90;;;;;;5000647;28;20226;-45
2023/01/26 08:33:54;;;;;;;6.78;4.25;;;3.20;99.90;;;;;;4977940;28;20280;-46
2023/01/26 08:37:15;;;;;;;7.95;4.32;;;3.20;99.90;;;;;;4989747;28;20667;-46
2023/01/26 08:40:31;;;;;;;7.28;4.20;;;3.20;99.90;;;;;;5007921;28;20449;-45
2023/01/26 08:44:11;;;;;;;7.35;4.03;;;3.20;99.90;;;;;;5009853;28;20705;-47
2023/01/26 08:47:41;;;;;;;6.80;3.78;;;3.20;99.90;;;;;;4991875;28;20816;-46
2023/01/26 08:50:58;;;;;;;6.60;3.83;;;3.20;99.90;;;;;;4889525;29;20232;-45
2023/01/26 08:58:01;;;;;;;8.80;4.68;;;3.20;99.90;;;;;;5014212;28;20241;-47
2023/01/26 09:01:10;;;;;;;7.85;4.22;;;3.20;99.90;;;;;;4992037;28;20276;-46
2023/01/26 09:04:46;;;;;;;4.90;3.38;;;3.20;99.90;;;;;;4996432;28;20219;-46
2023/01/26 09:08:09;;;;;;;8.00;4.75;;;3.20;99.90;;;;;;4989667;28;20193;-46
2023/01/26 09:11:15;;;;;;;5.75;4.28;;;3.20;99.90;;;;;;4983095;28;20703;-47
2023/01/26 09:14:18;;;;;;;6.70;4.47;;;3.10;99.90;;;;;;4978378;28;20639;-47
2023/01/26 09:20:46;;;;;;;8.57;4.20;;;3.10;99.90;;;;;;5022151;23;20237;-70
2023/01/26 09:23:16;;;;;;;7.30;4.60;;;3.20;99.90;;;;;;4998431;28;20226;-68
2023/01/26 09:25:45;;;;;;;6.85;3.40;;;3.10;99.90;;;;;;5005345;28;20266;-67
2023/01/26 09:28:13;;;;;;;6.07;3.85;;;3.10;99.90;;;;;;4996544;28;20304;-69
2023/01/26 09:30:43;;;;;;;8.27;4.07;;;3.10;99.90;;;;;;5004307;28;20238;-69
2023/01/26 09:33:12;;;;;;;5.65;3.40;;;3.20;99.90;;;;;;4994943;28;20222;-68
2023/01/26 09:35:40;;;;;;;8.68;4.28;;;3.10;99.90;;;;;;5008183;28;20519;-70
2023/01/26 09:38:08;;;;;;;5.15;3.72;;;3.20;99.90;;;;;;5000387;28;20723;-69
2023/01/26 09:40:45;;;;;;;9.30;4.60;;;3.10;99.90;;;;;;5003054;28;20228;-69
2023/01/26 09:43:25;;;;;;;8.65;3.95;;;3.20;99.90;;;;;;4999729;28;21007;-68
2023/01/26 09:46:06;;;;;;;5.90;4.32;;;3.10;99.90;;;;;;4990591;28;20236;-69
2023/01/26 09:48:42;;;;;;;7.72;4.43;;;3.10;99.90;;;;;;5011416;28;20308;-67
2023/01/26 09:51:15;;;;;;;7.75;4.03;;;3.20;99.90;;;;;;4990011;28;20244;-67
2023/01/26 09:53:50;;;;;;;8.05;3.75;;;3.20;99.90;;;;;;5003734;28;20596;-70
2023/01/26 09:56:21;;;;;;;6.45;4.57;;;3.20;99.90;;;;;;5004898;28;20637;-69
2023/01/26 09:58:54;;;;;;;7.90;4.70;;;3.10;99.90;;;;;;5005899;28;20746;-66
2023/01/26 10:01:31;;;;;;;10.50;5.40;;;3.10;99.90;;;;;;5001701;28;20615;-68
2023/01/26 10:04:05;;;;;;;8.25;5.28;;;3.20;99.90;;;;;;5002120;28;20254;-67
2023/01/26 10:06:36;;;;;;;6.22;3.33;;;3.20;99.90;;;;;;5013057;28;20197;-67
2023/01/26 10:09:15;;;;;;;7.15;4.38;;;3.10;99.90;;;;;;5000212;28;20642;-66
2023/01/26 10:11:46;;;;;;;5.28;3.60;;;3.10;99.90;;;;;;5005534;28;20228;-69
2023/01/26 10:14:19;;;;;;;8.77;4.25;;;3.20;99.90;;;;;;4998236;28;20282;-69
2023/01/26 10:16:51;;;;;;;7.25;3.85;;;3.20;99.90;;;;;;5006384;28;20243;-67
2023/01/26 10:19:31;;;;;;;7.03;5.15;;;3.20;99.90;;;;;;5001902;28;20638;-69
2023/01/26 10:22:05;;;;;;;7.30;4.40;;;3.10;99.90;;;;;;5000768;28;20196;-69
2023/01/26 10:24:33;;;;;;;8.48;4.35;;;3.20;99.90;;;;;;5002549;28;20233;-68
2023/01/26 10:27:02;;;;;;;9.27;4.78;;;3.20;99.90;;;;;;4999097;28;20201;-68
2023/01/26 10:29:30;;;;;;;10.15;3.90;;;3.10;99.90;;;;;;5004331;28;20279;-70
2023/01/26 10:32:00;;;;;;;8.85;4.18;;;3.10;99.90;;;;;;5001564;28;20789;-69
2023/01/26 10:34:29;;;;;;;8.68;5.35;;;3.20;99.90;;;;;;4997390;28;20320;-68
2023/01/26 10:37:19;;;;;;;7.70;4.50;;;3.20;99.90;;;;;;4998938;28;20205;-69
2023/01/26 10:40:06;;;;;;;9.82;4.60;;;3.10;99.90;;;;;;5012482;28;20221;-69
2023/01/26 10:42:36;;;;;;;7.40;4.05;;;3.20;99.90;;;;;;4996776;28;20229;-68
2023/01/26 10:45:07;;;;;;;5.55;3.50;;;3.10;99.90;;;;;;4995149;28;20311;-67
2023/01/26 10:47:37;;;;;;;6.97;4.40;;;3.20;99.90;;;;;;4998542;28;20733;-70
2023/01/26 10:50:19;;;;;;;8.60;4.78;;;3.20;99.90;;;;;;5023346;28;20306;-70
2023/01/26 10:52:59;;;;;;;8.63;5.10;;;3.10;99.90;;;;;;5022344;28;20226;-69
2023/01/26 10:55:28;;;;;;;8.05;5.07;;;3.20;99.90;;;;;;4988510;28;20421;-67
2023/01/26 10:57:57;;;;;;;9.82;4.75;;;3.10;99.90;;;;;;4987092;28;20236;-67
2023/01/26 11:00:28;;;;;;;6.85;3.78;;;3.20;99.90;;;;;;5003476;28;20202;-69
2023/01/26 11:03:06;;;;;;;9.50;4.45;;;3.20;99.90;;;;;;5015527;28;20781;-67
2023/01/26 11:05:35;;;;;;;8.23;3.70;;;3.10;99.90;;;;;;5000488;28;20284;-69
2023/01/26 11:08:05;;;;;;;8.63;4.65;;;3.20;99.90;;;;;;5018816;28;20241;-68
2023/01/26 11:10:36;;;;;;;8.38;4.50;;;3.20;99.90;;;;;;5011926;28;20253;-69
2023/01/26 11:13:12;;;;;;;9.98;4.75;;;3.20;99.90;;;;;;5004638;28;20717;-68
2023/01/26 11:15:43;;;;;;;10.20;5.18;;;3.20;99.90;;;;;;5011328;28;20201;-68
2023/01/26 11:18:22;;;;;;;6.88;4.15;;;3.10;99.90;;;;;;5003696;28;20296;-69
2023/01/26 11:20:57;;;;;;;10.75;4.40;;;3.20;99.90;;;;;;4990458;28;20291;-69
2023/01/26 11:23:42;;;;;;;9.02;5.07;;;3.20;99.90;;;;;;5023779;28;20576;-68
2023/01/26 11:26:36;;;;;;;10.65;4.75;;;3.20;99.90;;;;;;4998538;28;20201;-69
2023/01/26 11:29:31;;;;;;;7.90;4.75;;;3.20;99.90;;;;;;5003717;28;20329;-68
2023/01/26 11:32:06;;;;;;;9.70;5.68;;;3.20;99.90;;;;;;5007889;28;20566;-68
2023/01/26 11:34:43;;;;;;;7.03;4.28;;;3.20;99.90;;;;;;5022618;28;20591;-68
2023/01/26 11:37:39;;;;;;;9.65;4.43;;;3.20;99.90;;;;;;5005454;28;20613;-69
2023/01/26 11:40:28;;;;;;;7.43;4.78;;;3.10;99.90;;;;;;4987032;28;20230;-67
2023/01/26 11:43:11;;;;;;;11.05;4.75;;;3.10;99.90;;;;;;4994314;28;20300;-69
2023/01/26 11:45:58;;;;;;;9.50;4.82;;;3.20;99.90;;;;;;5011129;28;20210;-68
2023/01/26 11:48:39;;;;;;;7.97;4.03;;;3.20;99.90;;;;;;4999689;28;20283;-68
2023/01/26 11:51:17;;;;;;;8.25;4.82;;;3.20;99.90;;;;;;5014465;28;20237;-71
2023/01/26 11:54:03;;;;;;;9.23;5.00;;;3.10;99.90;;;;;;5011325;28;20214;-67
2023/01/26 11:56:44;;;;;;;9.65;4.35;;;3.20;99.90;;;;;;4997077;28;20194;-70
2023/01/26 11:59:17;;;;;;;10.77;5.00;;;3.20;99.90;;;;;;5003150;28;20223;-69
2023/01/26 12:01:49;;;;;;;10.93;5.78;;;3.10;99.90;;;;;;5013603;28;20195;-68
2023/01/26 12:04:20;;;;;;;9.05;4.53;;;3.20;99.90;;;;;;5005603;28;20220;-69
2023/01/26 12:06:54;;;;;;;9.88;4.78;;;3.20;99.90;;;;;;5014505;28;20240;-70
2023/01/26 12:09:31;;;;;;;10.50;4.90;;;3.10;99.90;;;;;;4993723;28;20296;-69
2023/01/26 12:12:05;;;;;;;8.38;4.75;;;3.20;99.90;;;;;;5004057;28;20209;-69
2023/01/26 12:14:41;;;;;;;7.25;4.65;;;3.10;99.90;;;;;;4997855;28;20320;-74
2023/01/26 12:17:29;;;;;;;8.90;4.75;;;3.20;99.90;;;;;;4991111;28;20756;-74
2023/01/26 12:20:04;;;;;;;9.70;4.90;;;3.10;99.90;;;;;;5017463;28;20648;-73
2023/01/26 12:22:37;;;;;;;12.55;7.75;;;3.10;99.90;;;;;;4998633;28;20231;-74
2023/01/26 12:25:22;;;;;;;10.27;5.60;;;3.20;99.90;;;;;;5016394;28;20260;-73
2023/01/26 12:27:58;;;;;;;10.40;5.47;;;3.20;99.90;;;;;;5019026;28;20198;-73
2023/01/26 12:30:34;;;;;;;7.43;4.55;;;3.20;99.90;;;;;;5018568;28;20201;-74
2023/01/26 12:33:02;;;;;;;12.38;5.60;;;3.10;99.90;;;;;;5015406;28;20228;-74
2023/01/26 12:35:48;;;;;;;10.02;4.93;;;3.10;99.90;;;;;;5000534;28;20267;-72
2023/01/26 12:38:23;;;;;;;9.15;4.78;;;3.20;99.90;;;;;;5018927;28;20689;-74
2023/01/26 12:41:03;;;;;;;8.55;5.70;;;3.20;99.90;;;;;;4987294;28;20967;-69
2023/01/26 12:43:47;;;;;;;10.38;5.70;;;3.20;99.90;;;;;;4988684;28;20237;-70
2023/01/26 12:46:17;;;;;;;14.30;5.93;;;3.10;99.90;;;;;;5003585;28;20761;-70
2023/01/26 12:48:50;;;;;;;8.13;4.72;;;3.10;99.90;;;;;;5005102;28;20718;-68
2023/01/26 12:51:24;;;;;;;6.97;4.32;;;3.20;99.90;;;;;;4994852;28;20202;-69
2023/01/26 12:53:58;;;;;;;9.88;4.75;;;3.10;99.90;;;;;;4997118;28;20701;-68
2023/01/26 12:56:31;;;;;;;9.10;4.80;;;3.20;99.90;;;;;;4998490;28;20235;-69
2023/01/26 12:59:06;;;;;;;9.27;4.65;;;3.10;99.90;;;;;;5013331;28;20557;-68
2023/01/26 13:01:42;;;;;;;10.82;5.05;;;3.20;99.90;;;;;;5011910;28;20232;-69
2023/01/26 13:04:13;;;;;;;10.25;4.45;;;3.20;99.90;;;;;;4998832;28;20230;-67
2023/01/26 13:06:42;;;;;;;9.35;5.07;;;3.10;99.90;;;;;;5001546;28;20208;-69
2023/01/26 13:09:24;;;;;;;10.85;4.88;;;3.10;99.90;;;;;;4994129;28;20214;-69
2023/01/26 13:11:54;;;;;;;10.65;5.30;;;3.20;99.90;;;;;;5012112;28;20237;-69
2023/01/26 13:14:36;;;;;;;10.07;5.00;;;3.20;99.90;;;;;;4998967;28;20224;-69
2023/01/26 13:17:44;;;;;;;7.53;4.45;;;3.20;99.90;;;;;;4992995;28;20197;-68
2023/01/26 13:20:23;;;;;;;10.02;4.60;;;3.10;99.90;;;;;;5009272;28;20254;-68
2023/01/26 13:22:53;;;;;;;7.20;4.10;;;3.20;99.90;;;;;;4998011;28;20240;-69
2023/01/26 13:25:31;;;;;;;10.55;5.88;;;3.20;99.90;;;;;;5015757;28;20198;-69
2023/01/26 13:28:03;;;;;;;7.75;4.38;;;3.20;99.90;;;;;;4997527;28;20266;-69
2023/01/26 13:30:43;;;;;;;8.45;5.18;;;3.10;99.90;;;;;;4996374;28;20228;-69
2023/01/26 13:33:19;;;;;;;9.70;5.13;;;3.20;99.90;;;;;;4992293;28;20245;-67
2023/01/26 13:35:50;;;;;;;10.15;4.78;;;3.20;99.90;;;;;;4997005;28;20281;-69
2023/01/26 13:38:39;;;;;;;10.52;5.43;;;3.10;99.90;;;;;;4998362;28;20268;-70
2023/01/26 13:41:14;;;;;;;9.93;5.20;;;3.20;99.90;;;;;;5003132;28;20198;-67
2023/01/26 13:43:46;;;;;;;7.57;4.47;;;3.20;99.90;;;;;;4991686;28;20778;-69
2023/01/26 13:46:21;;;;;;;7.20;4.45;;;3.10;99.90;;;;;;4988704;28;20233;-69
2023/01/26 13:48:51;;;;;;;6.32;4.38;;;3.10;99.90;;;;;;4991034;28;20217;-69
2023/01/26 13:51:22;;;;;;;9.88;5.22;;;3.10;99.90;;;;;;4994605;28;20199;-69
2023/01/26 13:53:57;;;;;;;9.02;4.43;;;3.20;99.90;;;;;;4997027;28;20542;-68
2023/01/26 13:56:30;;;;;;;10.15;5.30;;;3.20;99.90;;;;;;5007471;28;20201;-69
2023/01/26 13:59:11;;;;;;;7.57;4.68;;;3.10;99.90;;;;;;4996953;28;20242;-68
2023/01/26 14:01:44;;;;;;;11.30;5.18;;;3.10;99.90;;;;;;4998189;28;20233;-69
2023/01/26 14:04:15;;;;;;;8.93;4.53;;;3.10;99.90;;;;;;5015665;28;20220;-68
2023/01/26 14:06:48;;;;;;;10.27;4.40;;;3.10;99.90;;;;;;5019393;28;20198;-68
2023/01/26 14:09:18;;;;;;;8.30;4.70;;;3.10;99.90;;;;;;4999099;28;20877;-69
2023/01/26 14:11:56;;;;;;;6.57;3.92;;;3.10;99.90;;;;;;5026792;28;20232;-68
2023/01/26 14:14:26;;;;;;;7.35;4.15;;;3.20;99.90;;;;;;5000629;28;20252;-69
2023/01/26 14:16:57;;;;;;;7.32;4.20;;;3.10;99.90;;;;;;5004173;28;20198;-69
2023/01/26 14:19:27;;;;;;;5.90;4.03;;;3.10;99.90;;;;;;5003256;28;20225;-71
2023/01/26 14:21:58;;;;;;;7.32;4.05;;;3.20;99.90;;;;;;5017809;28;20213;-68
2023/01/26 14:24:33;;;;;;;8.82;4.68;;;3.10;99.90;;;;;;5018247;28;20775;-69
2023/01/26 14:27:03;;;;;;;6.45;4.20;;;3.10;99.90;;;;;;5006185;28;20193;-69
2023/01/26 14:29:38;;;;;;;6.57;3.78;;;3.20;99.90;;;;;;4991479;28;20603;-68
2023/01/26 14:32:15;;;;;;;8.55;5.00;;;3.20;99.90;;;;;;5006642;28;20205;-67
2023/01/26 14:34:52;;;;;;;5.90;3.53;;;3.20;99.90;;;;;;4994954;28;20226;-67
2023/01/26 14:37:20;;;;;;;7.30;4.03;;;3.20;99.90;;;;;;4994868;28;20200;-69
2023/01/26 14:39:49;;;;;;;6.75;4.25;;;3.20;99.90;;;;;;5015425;28;20218;-69
2023/01/26 14:42:20;;;;;;;7.75;4.32;;;3.20;99.90;;;;;;5018544;28;20627;-67
2023/01/26 14:44:49;;;;;;;5.88;4.03;;;3.20;99.90;;;;;;5020875;28;20209;-69
2023/01/26 14:47:22;;;;;;;6.32;4.38;;;3.10;99.90;;;;;;5021409;28;20201;-68
2023/01/26 14:49:55;;;;;;;6.88;4.60;;;3.10;99.90;;;;;;5017365;28;20585;-69
2023/01/26 14:52:25;;;;;;;5.05;3.55;;;3.20;99.90;;;;;;5005668;28;20206;-70
2023/01/26 14:54:56;;;;;;;7.38;4.75;;;3.20;99.90;;;;;;5015256;28;20221;-70
2023/01/26 14:57:28;;;;;;;6.03;3.05;;;3.10;99.90;;;;;;4993078;28;20562;-68
2023/01/26 14:59:58;;;;;;;6.70;5.10;;;3.20;99.90;;;;;;4992431;28;20225;-68
2023/01/26 15:02:34;;;;;;;7.30;3.50;;;3.10;99.90;;;;;;5000149;28;20530;-69
2023/01/26 15:05:12;;;;;;;5.97;3.38;;;3.10;99.90;;;;;;4999963;28;20701;-69
2023/01/26 15:07:43;;;;;;;8.68;3.63;;;3.20;99.90;;;;;;5013587;28;20208;-69
2023/01/26 15:10:35;;;;;;;4.10;2.85;;;3.20;99.90;;;;;;5021015;28;20229;-74
2023/01/26 15:13:08;;;;;;;5.32;3.70;;;3.10;99.90;;;;;;4995506;28;20219;-73
2023/01/26 15:15:38;;;;;;;5.65;3.88;;;3.20;99.90;;;;;;5014464;28;20321;-73
2023/01/26 15:18:19;;;;;;;6.45;3.53;;;3.10;99.90;;;;;;4991650;28;20253;-72
2023/01/26 15:20:59;;;;;;;6.82;3.88;;;3.10;99.90;;;;;;4999034;28;20277;-73
2023/01/26 15:23:30;;;;;;;5.93;3.05;;;3.10;99.90;;;;;;5011982;28;20216;-74
2023/01/26 15:26:07;;;;;;;5.45;3.15;;;3.10;99.90;;;;;;5010913;28;20741;-74
2023/01/26 15:28:38;;;;;;;5.03;3.58;;;3.20;99.90;;;;;;4998282;28;20751;-74
2023/01/26 15:31:07;;;;;;;6.00;3.83;;;3.10;99.90;;;;;;5022474;28;20895;-72
2023/01/26 15:33:46;;;;;;;5.82;3.28;;;3.10;99.90;;;;;;5001331;28;20222;-68
2023/01/26 15:36:24;;;;;;;6.72;3.22;;;3.20;99.90;;;;;;5017792;28;20197;-70
2023/01/26 15:39:00;;;;;;;4.50;3.80;;;3.20;99.90;;;;;;4998772;28;20308;-71
2023/01/26 15:41:29;;;;;;;6.13;3.30;;;3.10;99.90;;;;;;5013213;28;20201;-69
2023/01/26 15:43:59;;;;;;;7.63;3.95;;;3.20;99.90;;;;;;5003167;28;20240;-67
2023/01/26 15:46:28;;;;;;;6.90;3.90;;;3.10;99.90;;;;;;5016911;28;20294;-70
2023/01/26 15:48:57;;;;;;;4.78;2.88;;;3.10;99.90;;;;;;5002082;28;20409;-69
2023/01/26 15:51:25;;;;;;;7.22;4.30;;;3.10;99.90;;;;;;5017468;28;20205;-69
2023/01/26 15:53:54;;;;;;;6.85;3.67;;;3.10;99.90;;;;;;5018198;28;20227;-69
2023/01/26 15:56:22;;;;;;;8.13;4.90;;;3.10;99.90;;;;;;5012753;28;20743;-68
2023/01/26 15:58:51;;;;;;;6.35;3.55;;;3.10;99.90;;;;;;5014816;28;20255;-68
2023/01/26 16:01:23;;;;;;;5.72;4.13;;;3.10;99.90;;;;;;5017266;28;20736;-68
2023/01/26 16:03:51;;;;;;;7.97;4.03;;;3.10;99.90;;;;;;5015758;28;20715;-69
2023/01/26 16:06:23;;;;;;;6.22;4.43;;;3.10;99.90;;;;;;5017027;28;20822;-68
2023/01/26 16:08:52;;;;;;;4.90;3.50;;;3.10;99.90;;;;;;5014419;28;20597;-68
2023/01/26 16:11:21;;;;;;;5.72;3.75;;;3.20;99.90;;;;;;4996472;28;20291;-69
2023/01/26 16:13:51;;;;;;;6.40;3.90;;;3.20;99.90;;;;;;5000307;28;20300;-68
2023/01/26 16:16:32;;;;;;;4.38;3.25;;;3.10;99.90;;;;;;4997486;28;20549;-68